sensor_id;sensor_type;location;lat;lon;timestamp;temperature;humidity
4962;DHT22;2496;52.468;13.342;2022-10-16T00:00:33;15.00;99.90
4962;DHT22;2496;52.468;13.342;2022-10-16T00:03:01;15.00;99.90
4962;DHT22;2496;52.468;13.342;2022-10-16T00:05:28;15.00;99.90
4962;DHT22;2496;52.468;13.342;2022-10-16T00:07:55;15.10;99.90
4962;DHT22;2496;52.468;13.342;2022-10-16T00:10:22;15.00;99.90
4962;DHT22;2496;52.468;13.342;2022-10-16T00:12:49;15.10;99.90
4962;DHT22;2496;52.468;13.342;2022-10-16T00:15:17;15.10;99.90
4962;DHT22;2496;52.468;13.342;2022-10-16T00:17:44;15.10;99.90
4962;DHT22;2496;52.468;13.342;2022-10-16T00:20:11;15.10;99.90
4962;DHT22;2496;52.468;13.342;2022-10-16T00:22:38;15.20;99.90
4962;DHT22;2496;52.468;13.342;2022-10-16T00:25:05;15.20;99.90
4962;DHT22;2496;52.468;13.342;2022-10-16T00:27:33;15.20;99.90
4962;DHT22;2496;52.468;13.342;2022-10-16T00:30:00;15.20;99.90
4962;DHT22;2496;52.468;13.342;2022-10-16T00:32:28;15.20;99.90
4962;DHT22;2496;52.468;13.342;2022-10-16T00:34:55;15.20;99.90
4962;DHT22;2496;52.468;13.342;2022-10-16T00:37:22;15.20;99.90
4962;DHT22;2496;52.468;13.342;2022-10-16T00:39:49;15.20;99.90
4962;DHT22;2496;52.468;13.342;2022-10-16T00:42:17;15.20;99.90
4962;DHT22;2496;52.468;13.342;2022-10-16T00:44:48;15.20;99.90
4962;DHT22;2496;52.468;13.342;2022-10-16T00:47:23;15.20;99.90
4962;DHT22;2496;52.468;13.342;2022-10-16T00:49:55;15.20;99.90
4962;DHT22;2496;52.468;13.342;2022-10-16T00:52:22;15.30;99.90
4962;DHT22;2496;52.468;13.342;2022-10-16T00:54:49;15.30;99.90
4962;DHT22;2496;52.468;13.342;2022-10-16T00:57:17;15.30;99.90
4962;DHT22;2496;52.468;13.342;2022-10-16T00:59:43;15.30;99.90
4962;DHT22;2496;52.468;13.342;2022-10-16T01:02:13;15.30;99.90
4962;DHT22;2496;52.468;13.342;2022-10-16T01:04:42;15.30;99.90
4962;DHT22;2496;52.468;13.342;2022-10-16T01:07:18;15.30;99.90
4962;DHT22;2496;52.468;13.342;2022-10-16T01:09:57;15.30;99.90
4962;DHT22;2496;52.468;13.342;2022-10-16T01:12:34;15.30;99.90
4962;DHT22;2496;52.468;13.342;2022-10-16T01:15:10;15.30;99.90
4962;DHT22;2496;52.468;13.342;2022-10-16T01:17:43;15.20;99.90
4962;DHT22;2496;52.468;13.342;2022-10-16T01:20:16;15.20;99.90
4962;DHT22;2496;52.468;13.342;2022-10-16T01:23:04;15.20;99.90
4962;DHT22;2496;52.468;13.342;2022-10-16T01:25:42;15.20;99.90
4962;DHT22;2496;52.468;13.342;2022-10-16T01:28:18;15.20;99.90
4962;DHT22;2496;52.468;13.342;2022-10-16T01:30:46;15.20;99.90
4962;DHT22;2496;52.468;13.342;2022-10-16T01:33:17;15.20;99.90
4962;DHT22;2496;52.468;13.342;2022-10-16T01:35:49;15.20;99.90
4962;DHT22;2496;52.468;13.342;2022-10-16T01:38:21;15.20;99.90
4962;DHT22;2496;52.468;13.342;2022-10-16T01:40:53;15.20;99.90
4962;DHT22;2496;52.468;13.342;2022-10-16T01:43:28;15.20;99.90
4962;DHT22;2496;52.468;13.342;2022-10-16T01:45:59;15.20;99.90
4962;DHT22;2496;52.468;13.342;2022-10-16T01:48:27;15.20;99.90
4962;DHT22;2496;52.468;13.342;2022-10-16T01:50:59;15.20;99.90
4962;DHT22;2496;52.468;13.342;2022-10-16T01:53:27;15.20;99.90
4962;DHT22;2496;52.468;13.342;2022-10-16T01:55:55;15.10;99.90
4962;DHT22;2496;52.468;13.342;2022-10-16T01:58:28;15.10;99.90
4962;DHT22;2496;52.468;13.342;2022-10-16T02:01:00;15.10;99.90
4962;DHT22;2496;52.468;13.342;2022-10-16T02:03:28;15.10;99.90
4962;DHT22;2496;52.468;13.342;2022-10-16T02:05:56;15.10;99.90
4962;DHT22;2496;52.468;13.342;2022-10-16T02:08:27;15.10;99.90
4962;DHT22;2496;52.468;13.342;2022-10-16T02:10:54;15.10;99.90
4962;DHT22;2496;52.468;13.342;2022-10-16T02:13:26;15.10;99.90
4962;DHT22;2496;52.468;13.342;2022-10-16T02:15:53;15.10;99.90
4962;DHT22;2496;52.468;13.342;2022-10-16T02:18:20;15.10;99.90
4962;DHT22;2496;52.468;13.342;2022-10-16T02:20:51;15.10;99.90
4962;DHT22;2496;52.468;13.342;2022-10-16T02:23:24;15.10;99.90
4962;DHT22;2496;52.468;13.342;2022-10-16T02:25:54;15.10;99.90
4962;DHT22;2496;52.468;13.342;2022-10-16T02:28:26;15.10;99.90
4962;DHT22;2496;52.468;13.342;2022-10-16T02:30:57;15.10;99.90
4962;DHT22;2496;52.468;13.342;2022-10-16T02:33:26;15.10;99.90
4962;DHT22;2496;52.468;13.342;2022-10-16T02:35:54;15.10;99.90
4962;DHT22;2496;52.468;13.342;2022-10-16T02:38:22;15.10;99.90
4962;DHT22;2496;52.468;13.342;2022-10-16T02:40:49;15.10;99.90
4962;DHT22;2496;52.468;13.342;2022-10-16T02:43:16;15.10;99.90
4962;DHT22;2496;52.468;13.342;2022-10-16T02:45:44;15.10;99.90
4962;DHT22;2496;52.468;13.342;2022-10-16T02:48:11;15.10;99.90
4962;DHT22;2496;52.468;13.342;2022-10-16T02:50:38;15.10;99.90
4962;DHT22;2496;52.468;13.342;2022-10-16T02:53:05;15.10;99.90
4962;DHT22;2496;52.468;13.342;2022-10-16T02:55:32;15.10;99.90
4962;DHT22;2496;52.468;13.342;2022-10-16T02:57:59;15.10;99.90
4962;DHT22;2496;52.468;13.342;2022-10-16T03:00:26;15.10;99.90
4962;DHT22;2496;52.468;13.342;2022-10-16T03:02:55;15.10;99.90
4962;DHT22;2496;52.468;13.342;2022-10-16T03:05:22;15.10;99.90
4962;DHT22;2496;52.468;13.342;2022-10-16T03:07:49;15.10;99.90
4962;DHT22;2496;52.468;13.342;2022-10-16T03:10:15;15.00;99.90
4962;DHT22;2496;52.468;13.342;2022-10-16T03:12:42;15.00;99.90
4962;DHT22;2496;52.468;13.342;2022-10-16T03:15:09;15.00;99.90
4962;DHT22;2496;52.468;13.342;2022-10-16T03:17:36;15.00;99.90
4962;DHT22;2496;52.468;13.342;2022-10-16T03:20:05;15.00;99.90
4962;DHT22;2496;52.468;13.342;2022-10-16T03:22:32;15.00;99.90
4962;DHT22;2496;52.468;13.342;2022-10-16T03:24:59;15.00;99.90
4962;DHT22;2496;52.468;13.342;2022-10-16T03:27:26;14.90;99.90
4962;DHT22;2496;52.468;13.342;2022-10-16T03:29:53;15.00;99.90
4962;DHT22;2496;52.468;13.342;2022-10-16T03:32:20;14.90;99.90
4962;DHT22;2496;52.468;13.342;2022-10-16T03:34:47;14.90;99.90
4962;DHT22;2496;52.468;13.342;2022-10-16T03:37:15;14.90;99.90
4962;DHT22;2496;52.468;13.342;2022-10-16T03:39:42;14.90;99.90
4962;DHT22;2496;52.468;13.342;2022-10-16T03:42:09;14.90;99.90
4962;DHT22;2496;52.468;13.342;2022-10-16T03:44:35;14.90;99.90
4962;DHT22;2496;52.468;13.342;2022-10-16T03:47:02;14.80;99.90
4962;DHT22;2496;52.468;13.342;2022-10-16T03:49:29;14.80;99.90
4962;DHT22;2496;52.468;13.342;2022-10-16T03:51:56;14.80;99.90
4962;DHT22;2496;52.468;13.342;2022-10-16T03:54:24;14.80;99.90
4962;DHT22;2496;52.468;13.342;2022-10-16T03:56:51;14.80;99.90
4962;DHT22;2496;52.468;13.342;2022-10-16T03:59:18;14.80;99.90
4962;DHT22;2496;52.468;13.342;2022-10-16T04:01:44;14.80;99.90
4962;DHT22;2496;52.468;13.342;2022-10-16T04:04:11;14.70;99.90
4962;DHT22;2496;52.468;13.342;2022-10-16T04:06:38;14.70;99.90
4962;DHT22;2496;52.468;13.342;2022-10-16T04:09:05;14.80;99.90
4962;DHT22;2496;52.468;13.342;2022-10-16T04:11:33;14.70;99.90
4962;DHT22;2496;52.468;13.342;2022-10-16T04:14:00;14.70;99.90
4962;DHT22;2496;52.468;13.342;2022-10-16T04:16:27;14.70;99.90
4962;DHT22;2496;52.468;13.342;2022-10-16T04:18:54;14.70;99.90
4962;DHT22;2496;52.468;13.342;2022-10-16T04:21:21;14.70;99.90
4962;DHT22;2496;52.468;13.342;2022-10-16T04:23:48;14.70;99.90
4962;DHT22;2496;52.468;13.342;2022-10-16T04:26:14;14.70;99.90
4962;DHT22;2496;52.468;13.342;2022-10-16T04:28:43;14.70;99.90
4962;DHT22;2496;52.468;13.342;2022-10-16T04:31:09;14.70;99.90
4962;DHT22;2496;52.468;13.342;2022-10-16T04:33:36;14.70;99.90
4962;DHT22;2496;52.468;13.342;2022-10-16T04:36:04;14.70;99.90
4962;DHT22;2496;52.468;13.342;2022-10-16T04:38:31;14.70;99.90
4962;DHT22;2496;52.468;13.342;2022-10-16T04:40:58;14.60;99.90
4962;DHT22;2496;52.468;13.342;2022-10-16T04:43:25;14.60;99.90
4962;DHT22;2496;52.468;13.342;2022-10-16T04:45:53;14.60;99.90
4962;DHT22;2496;52.468;13.342;2022-10-16T04:48:20;14.60;99.90
4962;DHT22;2496;52.468;13.342;2022-10-16T04:50:47;14.60;99.90
4962;DHT22;2496;52.468;13.342;2022-10-16T04:53:14;14.60;99.90
4962;DHT22;2496;52.468;13.342;2022-10-16T04:55:42;14.60;99.90
4962;DHT22;2496;52.468;13.342;2022-10-16T04:58:09;14.60;99.90
4962;DHT22;2496;52.468;13.342;2022-10-16T05:00:36;14.60;99.90
4962;DHT22;2496;52.468;13.342;2022-10-16T05:03:05;14.50;99.90
4962;DHT22;2496;52.468;13.342;2022-10-16T05:05:34;14.50;99.90
4962;DHT22;2496;52.468;13.342;2022-10-16T05:08:01;14.50;99.90
4962;DHT22;2496;52.468;13.342;2022-10-16T05:10:28;14.50;99.90
4962;DHT22;2496;52.468;13.342;2022-10-16T05:12:55;14.40;99.90
4962;DHT22;2496;52.468;13.342;2022-10-16T05:15:22;14.40;99.90
4962;DHT22;2496;52.468;13.342;2022-10-16T05:17:52;14.40;99.90
4962;DHT22;2496;52.468;13.342;2022-10-16T05:20:21;14.40;99.90
4962;DHT22;2496;52.468;13.342;2022-10-16T05:22:48;14.40;99.90
4962;DHT22;2496;52.468;13.342;2022-10-16T05:25:15;14.40;99.90
4962;DHT22;2496;52.468;13.342;2022-10-16T05:27:42;14.40;99.90
4962;DHT22;2496;52.468;13.342;2022-10-16T05:30:10;14.40;99.90
4962;DHT22;2496;52.468;13.342;2022-10-16T05:32:37;14.30;99.90
4962;DHT22;2496;52.468;13.342;2022-10-16T05:35:04;14.30;99.90
4962;DHT22;2496;52.468;13.342;2022-10-16T05:37:32;14.30;99.90
4962;DHT22;2496;52.468;13.342;2022-10-16T05:39:59;14.30;99.90
4962;DHT22;2496;52.468;13.342;2022-10-16T05:42:26;14.30;99.90
4962;DHT22;2496;52.468;13.342;2022-10-16T05:44:53;14.30;99.90
4962;DHT22;2496;52.468;13.342;2022-10-16T05:47:20;14.30;99.90
4962;DHT22;2496;52.468;13.342;2022-10-16T05:49:47;14.30;99.90
4962;DHT22;2496;52.468;13.342;2022-10-16T05:52:14;14.30;99.90
4962;DHT22;2496;52.468;13.342;2022-10-16T05:54:42;14.30;99.90
4962;DHT22;2496;52.468;13.342;2022-10-16T05:57:09;14.30;99.90
4962;DHT22;2496;52.468;13.342;2022-10-16T05:59:36;14.30;99.90
4962;DHT22;2496;52.468;13.342;2022-10-16T06:02:03;14.30;99.90
4962;DHT22;2496;52.468;13.342;2022-10-16T06:04:30;14.30;99.90
4962;DHT22;2496;52.468;13.342;2022-10-16T06:06:58;14.30;99.90
4962;DHT22;2496;52.468;13.342;2022-10-16T06:09:26;14.30;99.90
4962;DHT22;2496;52.468;13.342;2022-10-16T06:11:54;14.30;99.90
4962;DHT22;2496;52.468;13.342;2022-10-16T06:14:21;14.30;99.90
4962;DHT22;2496;52.468;13.342;2022-10-16T06:19:24;14.30;99.90
4962;DHT22;2496;52.468;13.342;2022-10-16T06:23:41;14.30;99.90
4962;DHT22;2496;52.468;13.342;2022-10-16T06:26:11;14.30;99.90
4962;DHT22;2496;52.468;13.342;2022-10-16T06:28:38;14.40;99.90
4962;DHT22;2496;52.468;13.342;2022-10-16T06:31:07;14.40;99.90
4962;DHT22;2496;52.468;13.342;2022-10-16T06:33:35;14.40;99.90
4962;DHT22;2496;52.468;13.342;2022-10-16T06:36:02;14.40;99.90
4962;DHT22;2496;52.468;13.342;2022-10-16T06:38:30;14.40;99.90
4962;DHT22;2496;52.468;13.342;2022-10-16T06:40:58;14.50;99.90
4962;DHT22;2496;52.468;13.342;2022-10-16T06:43:26;14.50;99.90
4962;DHT22;2496;52.468;13.342;2022-10-16T06:45:53;14.50;99.90
4962;DHT22;2496;52.468;13.342;2022-10-16T06:48:20;14.50;99.90
4962;DHT22;2496;52.468;13.342;2022-10-16T06:50:56;14.50;99.90
4962;DHT22;2496;52.468;13.342;2022-10-16T06:53:23;14.60;99.90
4962;DHT22;2496;52.468;13.342;2022-10-16T06:55:50;14.60;99.90
4962;DHT22;2496;52.468;13.342;2022-10-16T06:58:19;14.60;99.90
4962;DHT22;2496;52.468;13.342;2022-10-16T07:00:46;14.60;99.90
4962;DHT22;2496;52.468;13.342;2022-10-16T07:03:13;14.60;99.90
4962;DHT22;2496;52.468;13.342;2022-10-16T07:05:41;14.60;99.90
4962;DHT22;2496;52.468;13.342;2022-10-16T07:08:08;14.70;99.90
4962;DHT22;2496;52.468;13.342;2022-10-16T07:10:35;14.70;99.90
4962;DHT22;2496;52.468;13.342;2022-10-16T07:13:02;14.80;99.90
4962;DHT22;2496;52.468;13.342;2022-10-16T07:15:31;14.90;99.90
4962;DHT22;2496;52.468;13.342;2022-10-16T07:17:57;15.00;99.90
4962;DHT22;2496;52.468;13.342;2022-10-16T07:20:24;15.00;99.90
4962;DHT22;2496;52.468;13.342;2022-10-16T07:22:52;15.10;99.90
4962;DHT22;2496;52.468;13.342;2022-10-16T07:25:18;15.10;99.90
4962;DHT22;2496;52.468;13.342;2022-10-16T07:27:45;15.10;99.90
4962;DHT22;2496;52.468;13.342;2022-10-16T07:30:12;15.20;99.90
4962;DHT22;2496;52.468;13.342;2022-10-16T07:32:40;15.30;99.90
4962;DHT22;2496;52.468;13.342;2022-10-16T07:35:07;15.30;99.90
4962;DHT22;2496;52.468;13.342;2022-10-16T07:37:34;15.40;99.90
4962;DHT22;2496;52.468;13.342;2022-10-16T07:40:01;15.40;99.90
4962;DHT22;2496;52.468;13.342;2022-10-16T07:42:28;15.40;99.90
4962;DHT22;2496;52.468;13.342;2022-10-16T07:44:55;15.50;99.90
4962;DHT22;2496;52.468;13.342;2022-10-16T07:47:22;15.50;99.90
4962;DHT22;2496;52.468;13.342;2022-10-16T07:49:50;15.50;99.90
4962;DHT22;2496;52.468;13.342;2022-10-16T07:52:17;15.50;99.90
4962;DHT22;2496;52.468;13.342;2022-10-16T07:54:44;15.60;99.90
4962;DHT22;2496;52.468;13.342;2022-10-16T07:57:11;15.60;99.90
4962;DHT22;2496;52.468;13.342;2022-10-16T07:59:44;15.60;99.90
4962;DHT22;2496;52.468;13.342;2022-10-16T08:02:10;15.60;99.90
4962;DHT22;2496;52.468;13.342;2022-10-16T08:04:37;15.60;99.90
4962;DHT22;2496;52.468;13.342;2022-10-16T08:07:06;15.70;99.90
4962;DHT22;2496;52.468;13.342;2022-10-16T08:09:34;15.70;99.90
4962;DHT22;2496;52.468;13.342;2022-10-16T08:12:01;15.70;99.90
4962;DHT22;2496;52.468;13.342;2022-10-16T08:14:29;15.80;99.90
4962;DHT22;2496;52.468;13.342;2022-10-16T08:16:56;15.80;99.90
4962;DHT22;2496;52.468;13.342;2022-10-16T08:19:23;15.80;99.90
4962;DHT22;2496;52.468;13.342;2022-10-16T08:21:50;15.90;99.90
4962;DHT22;2496;52.468;13.342;2022-10-16T08:24:18;15.90;99.90
4962;DHT22;2496;52.468;13.342;2022-10-16T08:26:45;16.00;99.90
4962;DHT22;2496;52.468;13.342;2022-10-16T08:29:13;16.10;99.90
4962;DHT22;2496;52.468;13.342;2022-10-16T08:31:40;16.10;99.90
4962;DHT22;2496;52.468;13.342;2022-10-16T08:34:07;16.20;99.90
4962;DHT22;2496;52.468;13.342;2022-10-16T08:36:34;16.20;99.90
4962;DHT22;2496;52.468;13.342;2022-10-16T08:39:00;16.30;99.90
4962;DHT22;2496;52.468;13.342;2022-10-16T08:42:06;16.30;99.90
4962;DHT22;2496;52.468;13.342;2022-10-16T08:44:44;16.30;99.90
4962;DHT22;2496;52.468;13.342;2022-10-16T08:47:17;16.30;99.90
4962;DHT22;2496;52.468;13.342;2022-10-16T08:49:55;16.40;99.90
4962;DHT22;2496;52.468;13.342;2022-10-16T08:52:28;16.40;99.90
4962;DHT22;2496;52.468;13.342;2022-10-16T08:54:56;16.40;99.90
4962;DHT22;2496;52.468;13.342;2022-10-16T08:57:26;16.40;99.90
4962;DHT22;2496;52.468;13.342;2022-10-16T08:59:53;16.50;99.90
4962;DHT22;2496;52.468;13.342;2022-10-16T09:02:30;16.50;99.90
4962;DHT22;2496;52.468;13.342;2022-10-16T09:05:17;16.50;99.90
4962;DHT22;2496;52.468;13.342;2022-10-16T09:07:51;16.50;99.90
4962;DHT22;2496;52.468;13.342;2022-10-16T09:10:31;16.60;99.90
4962;DHT22;2496;52.468;13.342;2022-10-16T09:13:10;16.70;99.90
4962;DHT22;2496;52.468;13.342;2022-10-16T09:15:42;16.80;99.90
4962;DHT22;2496;52.468;13.342;2022-10-16T09:18:15;16.90;99.90
4962;DHT22;2496;52.468;13.342;2022-10-16T09:20:49;16.90;99.90
4962;DHT22;2496;52.468;13.342;2022-10-16T09:23:19;17.00;99.90
4962;DHT22;2496;52.468;13.342;2022-10-16T09:25:48;17.00;99.90
4962;DHT22;2496;52.468;13.342;2022-10-16T09:28:17;17.10;99.90
4962;DHT22;2496;52.468;13.342;2022-10-16T09:30:45;17.20;99.90
4962;DHT22;2496;52.468;13.342;2022-10-16T09:33:15;17.20;99.90
4962;DHT22;2496;52.468;13.342;2022-10-16T09:35:44;17.30;99.90
4962;DHT22;2496;52.468;13.342;2022-10-16T09:38:23;17.30;99.90
4962;DHT22;2496;52.468;13.342;2022-10-16T09:40:51;17.30;99.90
4962;DHT22;2496;52.468;13.342;2022-10-16T09:43:23;17.30;99.90
4962;DHT22;2496;52.468;13.342;2022-10-16T09:45:57;17.40;99.90
4962;DHT22;2496;52.468;13.342;2022-10-16T09:48:27;17.50;99.90
4962;DHT22;2496;52.468;13.342;2022-10-16T09:50:56;17.60;99.90
4962;DHT22;2496;52.468;13.342;2022-10-16T09:53:23;17.60;99.90
4962;DHT22;2496;52.468;13.342;2022-10-16T09:55:53;17.60;99.90
4962;DHT22;2496;52.468;13.342;2022-10-16T09:58:23;17.60;99.90
4962;DHT22;2496;52.468;13.342;2022-10-16T10:00:52;17.60;99.90
4962;DHT22;2496;52.468;13.342;2022-10-16T10:03:33;17.60;99.90
4962;DHT22;2496;52.468;13.342;2022-10-16T10:06:05;17.60;99.90
4962;DHT22;2496;52.468;13.342;2022-10-16T10:08:33;17.70;99.90
4962;DHT22;2496;52.468;13.342;2022-10-16T10:11:00;17.70;99.90
4962;DHT22;2496;52.468;13.342;2022-10-16T10:13:28;17.70;99.90
4962;DHT22;2496;52.468;13.342;2022-10-16T10:15:55;17.80;99.90
4962;DHT22;2496;52.468;13.342;2022-10-16T10:18:22;17.90;99.90
4962;DHT22;2496;52.468;13.342;2022-10-16T10:20:58;17.90;99.90
4962;DHT22;2496;52.468;13.342;2022-10-16T10:23:27;17.90;99.90
4962;DHT22;2496;52.468;13.342;2022-10-16T10:25:59;18.00;99.90
4962;DHT22;2496;52.468;13.342;2022-10-16T10:28:50;17.90;99.90
4962;DHT22;2496;52.468;13.342;2022-10-16T10:31:25;18.00;99.90
4962;DHT22;2496;52.468;13.342;2022-10-16T10:33:59;18.00;99.90
4962;DHT22;2496;52.468;13.342;2022-10-16T10:36:34;18.00;99.90
4962;DHT22;2496;52.468;13.342;2022-10-16T10:39:06;18.00;99.90
4962;DHT22;2496;52.468;13.342;2022-10-16T10:44:30;18.10;99.90
4962;DHT22;2496;52.468;13.342;2022-10-16T10:47:07;18.10;99.90
4962;DHT22;2496;52.468;13.342;2022-10-16T10:49:49;18.20;99.90
4962;DHT22;2496;52.468;13.342;2022-10-16T10:52:34;18.30;99.90
4962;DHT22;2496;52.468;13.342;2022-10-16T10:55:11;18.40;99.90
4962;DHT22;2496;52.468;13.342;2022-10-16T10:57:46;18.40;99.90
4962;DHT22;2496;52.468;13.342;2022-10-16T11:00:26;18.40;99.90
4962;DHT22;2496;52.468;13.342;2022-10-16T11:02:58;18.40;99.90
4962;DHT22;2496;52.468;13.342;2022-10-16T11:05:42;18.40;99.90
4962;DHT22;2496;52.468;13.342;2022-10-16T11:08:15;18.50;99.90
4962;DHT22;2496;52.468;13.342;2022-10-16T11:10:48;18.50;99.90
4962;DHT22;2496;52.468;13.342;2022-10-16T11:13:28;18.60;99.90
4962;DHT22;2496;52.468;13.342;2022-10-16T11:15:58;18.70;99.90
4962;DHT22;2496;52.468;13.342;2022-10-16T11:18:33;18.80;99.90
4962;DHT22;2496;52.468;13.342;2022-10-16T11:21:11;18.90;99.90
4962;DHT22;2496;52.468;13.342;2022-10-16T11:23:42;19.00;99.90
4962;DHT22;2496;52.468;13.342;2022-10-16T11:26:14;19.00;99.90
4962;DHT22;2496;52.468;13.342;2022-10-16T11:28:45;19.00;99.90
4962;DHT22;2496;52.468;13.342;2022-10-16T11:31:19;18.90;99.90
4962;DHT22;2496;52.468;13.342;2022-10-16T11:33:51;18.90;99.90
4962;DHT22;2496;52.468;13.342;2022-10-16T11:36:23;18.90;99.90
4962;DHT22;2496;52.468;13.342;2022-10-16T11:38:54;18.80;99.90
4962;DHT22;2496;52.468;13.342;2022-10-16T11:41:27;18.80;99.90
4962;DHT22;2496;52.468;13.342;2022-10-16T11:44:09;18.70;99.90
4962;DHT22;2496;52.468;13.342;2022-10-16T11:46:43;18.70;99.90
4962;DHT22;2496;52.468;13.342;2022-10-16T11:49:14;18.70;99.90
4962;DHT22;2496;52.468;13.342;2022-10-16T11:51:45;18.70;99.90
4962;DHT22;2496;52.468;13.342;2022-10-16T11:54:20;18.70;99.90
4962;DHT22;2496;52.468;13.342;2022-10-16T11:56:49;18.70;99.90
4962;DHT22;2496;52.468;13.342;2022-10-16T11:59:22;18.60;99.90
4962;DHT22;2496;52.468;13.342;2022-10-16T12:01:57;18.60;99.90
4962;DHT22;2496;52.468;13.342;2022-10-16T12:04:31;18.60;99.90
4962;DHT22;2496;52.468;13.342;2022-10-16T12:07:04;18.60;99.90
4962;DHT22;2496;52.468;13.342;2022-10-16T12:09:35;18.60;99.90
4962;DHT22;2496;52.468;13.342;2022-10-16T12:12:03;18.60;99.90
4962;DHT22;2496;52.468;13.342;2022-10-16T12:14:38;18.50;99.90
4962;DHT22;2496;52.468;13.342;2022-10-16T12:17:24;18.50;99.90
4962;DHT22;2496;52.468;13.342;2022-10-16T12:19:59;18.60;99.90
4962;DHT22;2496;52.468;13.342;2022-10-16T12:22:29;18.60;99.90
4962;DHT22;2496;52.468;13.342;2022-10-16T12:24:57;18.70;99.90
4962;DHT22;2496;52.468;13.342;2022-10-16T12:27:28;18.70;99.90
4962;DHT22;2496;52.468;13.342;2022-10-16T12:29:57;18.80;99.90
4962;DHT22;2496;52.468;13.342;2022-10-16T12:32:30;18.80;99.90
4962;DHT22;2496;52.468;13.342;2022-10-16T12:34:58;18.90;99.90
4962;DHT22;2496;52.468;13.342;2022-10-16T12:37:28;19.00;99.90
4962;DHT22;2496;52.468;13.342;2022-10-16T12:39:58;19.00;99.90
4962;DHT22;2496;52.468;13.342;2022-10-16T12:42:33;19.00;99.90
4962;DHT22;2496;52.468;13.342;2022-10-16T12:45:25;19.00;99.90
4962;DHT22;2496;52.468;13.342;2022-10-16T12:47:55;19.10;99.90
4962;DHT22;2496;52.468;13.342;2022-10-16T12:50:33;19.10;99.90
4962;DHT22;2496;52.468;13.342;2022-10-16T12:53:02;19.10;99.90
4962;DHT22;2496;52.468;13.342;2022-10-16T12:55:35;19.10;99.90
4962;DHT22;2496;52.468;13.342;2022-10-16T12:58:19;19.20;99.90
4962;DHT22;2496;52.468;13.342;2022-10-16T13:00:55;19.20;99.90
4962;DHT22;2496;52.468;13.342;2022-10-16T13:06:20;19.20;99.90
4962;DHT22;2496;52.468;13.342;2022-10-16T13:09:11;19.10;99.90
4962;DHT22;2496;52.468;13.342;2022-10-16T13:12:01;19.20;99.90
4962;DHT22;2496;52.468;13.342;2022-10-16T13:15:07;19.20;99.90
4962;DHT22;2496;52.468;13.342;2022-10-16T13:17:43;19.20;99.90
4962;DHT22;2496;52.468;13.342;2022-10-16T13:20:18;19.20;99.90
4962;DHT22;2496;52.468;13.342;2022-10-16T13:22:55;19.20;99.90
4962;DHT22;2496;52.468;13.342;2022-10-16T13:25:31;19.30;99.90
4962;DHT22;2496;52.468;13.342;2022-10-16T13:28:00;19.30;99.90
4962;DHT22;2496;52.468;13.342;2022-10-16T13:30:29;19.30;99.90
4962;DHT22;2496;52.468;13.342;2022-10-16T13:33:01;19.30;99.90
4962;DHT22;2496;52.468;13.342;2022-10-16T13:35:34;19.20;99.90
4962;DHT22;2496;52.468;13.342;2022-10-16T13:38:15;19.20;99.90
4962;DHT22;2496;52.468;13.342;2022-10-16T13:40:54;19.20;99.90
4962;DHT22;2496;52.468;13.342;2022-10-16T13:43:24;19.20;99.90
4962;DHT22;2496;52.468;13.342;2022-10-16T13:45:56;19.10;99.90
4962;DHT22;2496;52.468;13.342;2022-10-16T13:48:23;19.10;99.90
4962;DHT22;2496;52.468;13.342;2022-10-16T13:51:06;19.10;99.90
4962;DHT22;2496;52.468;13.342;2022-10-16T13:53:34;19.10;99.90
4962;DHT22;2496;52.468;13.342;2022-10-16T13:56:03;19.00;99.90
4962;DHT22;2496;52.468;13.342;2022-10-16T13:58:31;18.90;99.90
4962;DHT22;2496;52.468;13.342;2022-10-16T14:01:00;18.80;99.90
4962;DHT22;2496;52.468;13.342;2022-10-16T14:03:29;18.80;99.90
4962;DHT22;2496;52.468;13.342;2022-10-16T14:06:00;18.70;99.90
4962;DHT22;2496;52.468;13.342;2022-10-16T14:08:30;18.70;99.90
4962;DHT22;2496;52.468;13.342;2022-10-16T14:10:59;18.70;99.90
4962;DHT22;2496;52.468;13.342;2022-10-16T14:13:31;18.70;99.90
4962;DHT22;2496;52.468;13.342;2022-10-16T14:16:02;18.70;99.90
4962;DHT22;2496;52.468;13.342;2022-10-16T14:18:31;18.70;99.90
4962;DHT22;2496;52.468;13.342;2022-10-16T14:21:03;18.80;99.90
4962;DHT22;2496;52.468;13.342;2022-10-16T14:23:35;18.80;99.90
4962;DHT22;2496;52.468;13.342;2022-10-16T14:26:13;18.80;99.90
4962;DHT22;2496;52.468;13.342;2022-10-16T14:28:41;18.90;99.90
4962;DHT22;2496;52.468;13.342;2022-10-16T14:31:28;18.90;99.90
4962;DHT22;2496;52.468;13.342;2022-10-16T14:33:55;18.90;99.90
4962;DHT22;2496;52.468;13.342;2022-10-16T14:36:24;18.90;99.90
4962;DHT22;2496;52.468;13.342;2022-10-16T14:38:58;18.80;99.90
4962;DHT22;2496;52.468;13.342;2022-10-16T14:41:26;18.80;99.90
4962;DHT22;2496;52.468;13.342;2022-10-16T14:43:54;18.80;99.90
4962;DHT22;2496;52.468;13.342;2022-10-16T14:46:28;18.80;99.90
4962;DHT22;2496;52.468;13.342;2022-10-16T14:49:01;18.70;99.90
4962;DHT22;2496;52.468;13.342;2022-10-16T14:51:29;18.70;99.90
4962;DHT22;2496;52.468;13.342;2022-10-16T14:53:58;18.70;99.90
4962;DHT22;2496;52.468;13.342;2022-10-16T14:56:27;18.70;99.90
4962;DHT22;2496;52.468;13.342;2022-10-16T14:58:55;18.70;99.90
4962;DHT22;2496;52.468;13.342;2022-10-16T15:01:22;18.70;99.90
4962;DHT22;2496;52.468;13.342;2022-10-16T15:03:49;18.70;99.90
4962;DHT22;2496;52.468;13.342;2022-10-16T15:06:18;18.60;99.90
4962;DHT22;2496;52.468;13.342;2022-10-16T15:08:45;18.60;99.90
4962;DHT22;2496;52.468;13.342;2022-10-16T15:11:14;18.60;99.90
4962;DHT22;2496;52.468;13.342;2022-10-16T15:13:42;18.60;99.90
4962;DHT22;2496;52.468;13.342;2022-10-16T15:16:11;18.50;99.90
4962;DHT22;2496;52.468;13.342;2022-10-16T15:18:38;18.50;99.90
4962;DHT22;2496;52.468;13.342;2022-10-16T15:21:05;18.50;99.90
4962;DHT22;2496;52.468;13.342;2022-10-16T15:23:32;18.50;99.90
4962;DHT22;2496;52.468;13.342;2022-10-16T15:25:59;18.40;99.90
4962;DHT22;2496;52.468;13.342;2022-10-16T15:28:28;18.40;99.90
4962;DHT22;2496;52.468;13.342;2022-10-16T15:30:56;18.30;99.90
4962;DHT22;2496;52.468;13.342;2022-10-16T15:33:26;18.30;99.90
4962;DHT22;2496;52.468;13.342;2022-10-16T15:35:58;18.20;99.90
4962;DHT22;2496;52.468;13.342;2022-10-16T15:38:26;18.20;99.90
4962;DHT22;2496;52.468;13.342;2022-10-16T15:40:54;18.20;99.90
4962;DHT22;2496;52.468;13.342;2022-10-16T15:43:21;18.10;99.90
4962;DHT22;2496;52.468;13.342;2022-10-16T15:45:59;18.00;99.90
4962;DHT22;2496;52.468;13.342;2022-10-16T15:48:27;18.00;99.90
4962;DHT22;2496;52.468;13.342;2022-10-16T15:50:53;18.00;99.90
4962;DHT22;2496;52.468;13.342;2022-10-16T15:53:20;17.90;99.90
4962;DHT22;2496;52.468;13.342;2022-10-16T15:55:48;17.90;99.90
4962;DHT22;2496;52.468;13.342;2022-10-16T15:58:14;17.90;99.90
4962;DHT22;2496;52.468;13.342;2022-10-16T16:00:41;17.80;99.90
4962;DHT22;2496;52.468;13.342;2022-10-16T16:03:10;17.80;99.90
4962;DHT22;2496;52.468;13.342;2022-10-16T16:05:38;17.80;99.90
4962;DHT22;2496;52.468;13.342;2022-10-16T16:08:05;17.70;99.90
4962;DHT22;2496;52.468;13.342;2022-10-16T16:10:32;17.70;99.90
4962;DHT22;2496;52.468;13.342;2022-10-16T16:12:59;17.60;99.90